Time;durP1;ratioP1;P1;durP2;ratioP2;P2;SDS_P1;SDS_P2;PMS_P1;PMS_P2;Temp;Humidity;BMP_temperature;BMP_pressure;BME280_temperature;BME280_humidity;BME280_pressure;Samples;Min_cycle;Max_cycle;Signal;HPM_P1;HPM_P2
2021/08/06 00:02:15;;;;;;;8.93;4.40;;;;;;;21.13;79.89;99693.14;125096;1102;104166;-77
2021/08/06 00:04:46;;;;;;;10.17;4.83;;;;;;;21.10;80.24;99721.64;125147;1102;104156;-77
2021/08/06 00:07:17;;;;;;;10.73;4.80;;;;;;;21.10;79.12;99730.55;125173;1102;104249;-79
2021/08/06 00:09:49;;;;;;;11.87;4.83;;;;;;;21.12;80.27;99744.72;125199;1102;104206;-77
2021/08/06 00:12:20;;;;;;;9.10;4.57;;;;;;;21.18;79.67;99701.91;124913;1102;104149;-77
2021/08/06 00:14:51;;;;;;;11.73;4.57;;;;;;;21.21;79.32;99673.41;124974;1105;104265;-76
2021/08/06 00:17:22;;;;;;;9.87;4.40;;;;;;;21.15;80.41;99661.09;125140;1102;105559;-76
2021/08/06 00:19:54;;;;;;;10.90;4.20;;;;;;;21.18;80.73;99672.56;125209;1102;104175;-77
2021/08/06 00:22:25;;;;;;;13.70;5.13;;;;;;;21.22;80.55;99645.83;125190;1102;104177;-77
2021/08/06 00:24:55;;;;;;;10.60;4.60;;;;;;;21.27;80.50;99615.48;125196;1102;104251;-77
2021/08/06 00:27:34;;;;;;;11.37;4.40;;;;;;;21.29;80.12;99589.63;125164;1102;104188;-76
2021/08/06 00:30:06;;;;;;;13.23;4.80;;;;;;;21.28;80.65;99557.66;125188;1102;104146;-77
2021/08/06 00:32:37;;;;;;;14.20;4.47;;;;;;;21.22;80.39;99523.11;125246;1102;104198;-77
2021/08/06 00:35:11;;;;;;;11.90;4.43;;;;;;;21.16;80.28;99514.34;125098;1102;104150;-77
2021/08/06 00:37:44;;;;;;;11.03;4.67;;;;;;;21.16;81.04;99487.67;125161;1102;104146;-77
2021/08/06 00:40:16;;;;;;;11.20;5.07;;;;;;;21.18;80.62;99472.50;125156;1102;104246;-76
2021/08/06 00:42:49;;;;;;;9.63;4.58;;;;;;;21.11;80.36;99464.68;125268;1102;104248;-77
2021/08/06 00:45:26;;;;;;;9.73;4.57;;;;;;;21.10;80.71;99457.58;125223;1102;104289;-77
2021/08/06 00:47:59;;;;;;;9.60;4.60;;;;;;;21.10;81.08;99428.24;125170;1102;104172;-77
2021/08/06 00:50:31;;;;;;;9.00;4.17;;;;;;;21.08;80.42;99436.28;125254;1102;104140;-76
2021/08/06 00:53:03;;;;;;;10.07;4.57;;;;;;;21.08;80.81;99409.61;125143;1102;104146;-75
2021/08/06 00:55:34;;;;;;;10.35;4.45;;;;;;;21.06;80.69;99383.91;125185;1102;104146;-77
2021/08/06 00:58:20;;;;;;;11.97;3.90;;;;;;;20.99;81.21;99380.54;125158;1102;104152;-76
2021/08/06 01:00:52;;;;;;;6.90;3.80;;;;;;;20.89;80.72;99424.33;125149;1102;104287;-77
2021/08/06 01:03:38;;;;;;;7.90;3.70;;;;;;;20.84;81.13;99421.77;125187;1102;104242;-76
2021/08/06 01:06:17;;;;;;;6.67;3.63;;;;;;;20.75;80.97;99452.17;125015;1101;104300;-77
2021/08/06 01:08:57;;;;;;;12.53;4.50;;;;;;;20.69;81.10;99456.77;125145;1102;104588;-76
2021/08/06 01:11:35;;;;;;;12.80;4.43;;;;;;;20.71;81.31;99460.27;125200;1102;104143;-76
2021/08/06 01:14:15;;;;;;;14.30;6.30;;;;;;;20.72;82.26;99488.69;125202;1102;104182;-78
2021/08/06 01:16:50;;;;;;;11.35;4.35;;;;;;;20.69;81.43;99484.29;125201;1102;105058;-77
2021/08/06 01:19:38;;;;;;;8.67;4.23;;;;;;;20.66;81.66;99473.70;124994;1102;104204;-76
2021/08/06 01:22:21;;;;;;;12.43;4.10;;;;;;;20.65;82.46;99480.83;125153;1102;104152;-77
2021/08/06 01:25:03;;;;;;;9.90;4.40;;;;;;;20.66;81.99;99481.69;125058;1102;104258;-76
2021/08/06 01:27:38;;;;;;;10.50;4.47;;;;;;;20.63;81.77;99485.29;125156;1102;104143;-76
2021/08/06 01:30:14;;;;;;;10.13;4.70;;;;;;;20.63;82.69;99487.95;125231;1101;104220;-77
2021/08/06 01:32:45;;;;;;;13.17;4.20;;;;;;;20.67;81.83;99507.45;125244;1102;104168;-76
2021/08/06 01:35:20;;;;;;;8.80;4.50;;;;;;;20.71;81.93;99514.48;125230;1102;104140;-77
2021/08/06 01:37:51;;;;;;;9.10;3.93;;;;;;;20.73;82.16;99515.31;125254;1102;104139;-76
2021/08/06 01:40:23;;;;;;;9.37;4.57;;;;;;;20.79;82.59;99522.31;125164;1102;107031;-76
2021/08/06 01:43:04;;;;;;;13.07;4.93;;;;;;;20.80;82.00;99556.03;125071;1102;104156;-76
2021/08/06 01:45:43;;;;;;;16.03;5.77;;;;;;;20.79;82.25;99546.30;125222;1102;104169;-77
2021/08/06 01:48:24;;;;;;;13.80;5.50;;;;;;;20.75;83.06;99486.82;124998;1102;104194;-76
2021/08/06 01:50:57;;;;;;;21.80;6.73;;;;;;;20.69;82.24;99489.63;125198;1102;104155;-76
2021/08/06 01:53:29;;;;;;;13.30;6.57;;;;;;;20.56;82.50;99477.45;124983;1102;104255;-77
2021/08/06 01:56:08;;;;;;;14.30;8.00;;;;;;;20.45;83.25;99457.23;125179;1102;104198;-76
2021/08/06 01:58:53;;;;;;;11.53;6.40;;;;;;;20.41;82.73;99479.55;124970;1102;104152;-77
2021/08/06 02:01:27;;;;;;;12.57;6.60;;;;;;;20.33;82.68;99483.27;125190;1102;104176;-76
2021/08/06 02:04:08;;;;;;;12.50;5.80;;;;;;;20.27;82.65;99493.15;125163;1102;104340;-77
2021/08/06 02:06:43;;;;;;;13.37;6.60;;;;;;;20.23;83.26;99527.86;125094;1102;104182;-76
2021/08/06 02:09:18;;;;;;;12.43;5.93;;;;;;;20.28;82.76;99565.94;125238;1102;104201;-76
2021/08/06 02:11:51;;;;;;;11.33;5.47;;;;;;;20.28;83.63;99573.92;125268;1102;104198;-77
2021/08/06 02:14:27;;;;;;;13.93;5.73;;;;;;;20.29;82.71;99546.39;125167;1102;104159;-75
2021/08/06 02:16:58;;;;;;;11.80;5.50;;;;;;;20.32;83.77;99553.42;125178;1102;104251;-76
2021/08/06 02:19:40;;;;;;;14.10;6.10;;;;;;;20.33;83.86;99513.44;125192;1102;104251;-78
2021/08/06 02:22:18;;;;;;;13.23;6.60;;;;;;;20.37;83.29;99479.64;125114;1102;104236;-77
2021/08/06 02:24:56;;;;;;;13.87;6.30;;;;;;;20.35;83.47;99470.78;125267;1102;104159;-77
2021/08/06 02:27:33;;;;;;;13.03;6.30;;;;;;;20.29;83.60;99478.00;125204;1102;104239;-77
2021/08/06 02:30:07;;;;;;;14.70;6.72;;;;;;;20.31;83.52;99477.97;125196;1102;104367;-76
2021/08/06 02:32:45;;;;;;;15.37;7.17;;;;;;;20.37;83.73;99485.84;125214;1102;104248;-76
2021/08/06 02:35:16;;;;;;;14.87;6.47;;;;;;;20.41;84.01;99522.17;125192;1102;104243;-76
2021/08/06 02:37:49;;;;;;;12.17;6.67;;;;;;;20.41;83.96;99547.92;125194;1102;104175;-76
2021/08/06 02:40:20;;;;;;;14.37;7.03;;;;;;;20.40;84.33;99573.70;125191;1102;104175;-77
2021/08/06 02:42:53;;;;;;;15.87;6.80;;;;;;;20.42;84.18;99586.98;125222;1102;104340;-76
2021/08/06 02:45:25;;;;;;;14.17;7.10;;;;;;;20.41;83.27;99591.45;125198;1102;104332;-75
2021/08/06 02:47:57;;;;;;;18.87;6.57;;;;;;;20.33;83.65;99584.50;125267;1102;104169;-76
2021/08/06 02:50:28;;;;;;;21.13;8.07;;;;;;;20.21;83.48;99569.61;125211;1102;104146;-77
2021/08/06 02:53:02;;;;;;;19.20;7.07;;;;;;;20.19;84.61;99600.73;125234;1102;104249;-76
2021/08/06 02:55:33;;;;;;;20.70;7.80;;;;;;;20.14;85.12;99595.48;125224;1102;104248;-76
2021/08/06 02:58:05;;;;;;;15.53;7.47;;;;;;;20.06;84.01;99566.33;125066;1102;104206;-75
2021/08/06 03:00:37;;;;;;;13.08;6.33;;;;;;;19.93;84.15;99535.52;125204;1102;104142;-76
2021/08/06 03:03:08;;;;;;;21.43;7.00;;;;;;;19.89;84.40;99513.38;125202;1102;104137;-76
2021/08/06 03:05:40;;;;;;;21.67;7.27;;;;;;;19.87;84.35;99450.45;125261;1102;104155;-78
2021/08/06 03:08:13;;;;;;;13.93;6.10;;;;;;;19.83;84.23;99416.80;125230;1102;104168;-78
2021/08/06 03:10:45;;;;;;;14.40;6.20;;;;;;;19.78;84.13;99426.66;125120;1102;104191;-79
2021/08/06 03:13:16;;;;;;;11.87;5.70;;;;;;;19.70;85.19;99464.90;125197;1102;104201;-76
2021/08/06 03:15:47;;;;;;;17.43;6.10;;;;;;;19.63;85.66;99470.36;125162;1102;104166;-77
2021/08/06 03:18:19;;;;;;;16.80;6.87;;;;;;;19.57;87.03;99463.35;125250;1102;104172;-77
2021/08/06 03:20:55;;;;;;;12.70;6.80;;;;;;;19.52;86.36;99492.70;125134;1102;104237;-76
2021/08/06 03:23:28;;;;;;;14.20;7.07;;;;;;;19.48;87.59;99506.11;125216;1102;104395;-76
2021/08/06 03:25:59;;;;;;;14.60;7.37;;;;;;;19.44;88.37;99517.69;125140;1102;104144;-77
2021/08/06 03:28:30;;;;;;;14.97;7.70;;;;;;;19.39;87.27;99529.27;125220;1102;104679;-77
2021/08/06 03:31:01;;;;;;;17.47;9.23;;;;;;;19.38;87.39;99500.94;125178;1102;104150;-77
2021/08/06 03:33:33;;;;;;;14.13;7.03;;;;;;;19.40;88.62;99443.26;125213;1100;104150;-77
2021/08/06 03:36:05;;;;;;;15.20;6.60;;;;;;;19.39;87.40;99429.98;125208;1102;104301;-77
2021/08/06 03:38:36;;;;;;;14.80;6.70;;;;;;;19.35;87.12;99360.02;125194;1102;104579;-77
2021/08/06 03:41:07;;;;;;;11.10;5.90;;;;;;;19.34;88.67;99366.23;125074;1102;104205;-77
2021/08/06 03:43:39;;;;;;;15.80;6.07;;;;;;;19.31;87.71;99318.41;125245;1102;104275;-77
2021/08/06 03:46:10;;;;;;;18.07;6.80;;;;;;;19.32;88.03;99349.44;125216;1102;104325;-78
2021/08/06 03:48:43;;;;;;;15.63;6.13;;;;;;;19.32;87.03;99376.03;125205;1102;104149;-77
2021/08/06 03:51:15;;;;;;;12.33;6.17;;;;;;;19.34;87.59;99376.87;124980;1102;104181;-77
2021/08/06 03:53:46;;;;;;;14.47;6.60;;;;;;;19.36;87.64;99359.09;125014;1106;104153;-76
2021/08/06 03:56:18;;;;;;;15.30;6.50;;;;;;;19.37;87.58;99334.25;124980;1106;104589;-78
2021/08/06 03:58:51;;;;;;;12.93;5.58;;;;;;;19.39;87.37;99297.86;125023;1102;104304;-77
2021/08/06 04:01:23;;;;;;;12.20;6.43;;;;;;;19.39;87.44;99244.66;124958;1102;104312;-80
2021/08/06 04:03:55;;;;;;;20.73;9.77;;;;;;;19.39;87.46;99209.21;124996;1102;104191;-78
2021/08/06 04:06:27;;;;;;;18.07;9.40;;;;;;;19.37;86.92;99262.44;125017;1102;104185;-76
2021/08/06 04:08:59;;;;;;;17.13;8.87;;;;;;;19.38;87.25;99298.78;125031;1102;104182;-77
2021/08/06 04:11:30;;;;;;;17.53;8.43;;;;;;;19.40;87.32;99285.45;124992;1102;105440;-76
2021/08/06 04:14:01;;;;;;;15.10;7.70;;;;;;;19.46;86.76;99305.72;124971;1102;104192;-78
2021/08/06 04:16:33;;;;;;;14.97;7.23;;;;;;;19.50;86.91;99328.70;124982;1102;104188;-77
2021/08/06 04:19:04;;;;;;;16.40;8.00;;;;;;;19.54;86.70;99355.22;124985;1103;104143;-77
2021/08/06 04:21:36;;;;;;;20.40;10.13;;;;;;;19.59;86.98;99357.80;124984;1102;104389;-78
2021/08/06 04:24:09;;;;;;;18.48;10.30;;;;;;;19.60;86.97;99335.58;125260;1102;104230;-77
2021/08/06 04:26:42;;;;;;;20.25;10.93;;;;;;;19.68;86.91;99351.39;125218;1102;104140;-78
2021/08/06 04:29:12;;;;;;;18.93;10.17;;;;;;;19.74;87.15;99362.81;125119;1102;104194;-77
2021/08/06 04:31:44;;;;;;;17.10;9.30;;;;;;;19.78;86.50;99355.67;125144;1102;104245;-77
2021/08/06 04:34:15;;;;;;;19.53;10.60;;;;;;;19.83;86.25;99342.27;125221;1102;104233;-78
2021/08/06 04:36:48;;;;;;;22.40;10.40;;;;;;;19.89;87.25;99358.11;125114;1102;104254;-78
2021/08/06 04:39:19;;;;;;;19.97;9.50;;;;;;;19.92;86.48;99366.03;125243;1102;104169;-76
2021/08/06 04:41:51;;;;;;;18.50;8.03;;;;;;;19.98;86.16;99363.25;125128;1102;104171;-77
2021/08/06 04:44:22;;;;;;;17.13;8.10;;;;;;;20.02;87.05;99364.91;125249;1102;104166;-77
2021/08/06 04:46:53;;;;;;;17.27;8.07;;;;;;;20.05;86.16;99371.97;125185;1102;104175;-76
2021/08/06 04:49:24;;;;;;;16.65;7.15;;;;;;;20.08;86.86;99367.45;125190;1102;104198;-76
2021/08/06 04:51:56;;;;;;;16.13;7.60;;;;;;;20.12;87.01;99376.27;125137;1102;104331;-77
2021/08/06 04:54:27;;;;;;;13.77;6.97;;;;;;;20.11;86.11;99383.36;125216;1102;104153;-78
2021/08/06 04:56:58;;;;;;;12.83;6.40;;;;;;;20.11;86.55;99390.48;125217;1102;104161;-80
2021/08/06 04:59:30;;;;;;;;;;;;;;;20.10;86.95;99399.37;125229;1102;104200;-79
2021/08/06 05:02:01;;;;;;;17.10;6.60;;;;;;;20.09;86.68;99426.94;125155;1102;104175;-78
2021/08/06 05:04:34;;;;;;;10.20;5.80;;;;;;;20.06;86.21;99438.52;125076;1102;104290;-77
2021/08/06 05:07:05;;;;;;;13.33;6.00;;;;;;;20.06;86.08;99426.99;125202;1102;104313;-77
2021/08/06 05:09:36;;;;;;;14.50;6.40;;;;;;;20.08;86.55;99422.50;125214;1102;104205;-78
2021/08/06 05:12:08;;;;;;;15.67;6.03;;;;;;;20.08;86.50;99407.39;125064;1102;104210;-76
2021/08/06 05:14:40;;;;;;;12.47;6.30;;;;;;;20.07;86.19;99400.34;125212;1102;118004;-76
2021/08/06 05:17:11;;;;;;;15.67;6.17;;;;;;;20.10;87.24;99402.03;125177;1102;104297;-77
2021/08/06 05:19:42;;;;;;;14.23;6.27;;;;;;;20.12;86.77;99373.61;125230;1102;104163;-77
2021/08/06 05:22:15;;;;;;;14.83;6.53;;;;;;;20.16;86.40;99371.75;125199;1102;104149;-79
2021/08/06 05:24:49;;;;;;;12.80;5.70;;;;;;;20.18;87.08;99380.57;124961;1102;104184;-77
2021/08/06 05:27:21;;;;;;;13.77;5.67;;;;;;;20.22;86.82;99383.13;124926;1102;104354;-76
2021/08/06 05:29:52;;;;;;;14.03;6.03;;;;;;;20.27;87.17;99365.29;124870;1105;104242;-77
2021/08/06 05:32:24;;;;;;;11.60;5.83;;;;;;;20.34;87.25;99376.67;124904;1106;104175;-76
2021/08/06 05:34:55;;;;;;;16.30;5.97;;;;;;;20.40;87.08;99392.52;124886;1102;111388;-77
2021/08/06 05:37:27;;;;;;;13.63;6.07;;;;;;;20.42;86.44;99385.36;124968;1102;104322;-76
2021/08/06 05:39:59;;;;;;;14.00;5.90;;;;;;;20.41;87.05;99386.30;124974;1102;104158;-78
2021/08/06 05:42:31;;;;;;;10.90;5.43;;;;;;;20.42;86.45;99380.03;124928;1105;101932;-77
2021/08/06 05:45:03;;;;;;;13.17;6.07;;;;;;;20.44;87.35;99367.58;124968;1102;104297;-79
2021/08/06 05:47:50;;;;;;;14.20;6.53;;;;;;;20.48;87.25;99377.23;124978;1102;104393;-77
2021/08/06 05:50:25;;;;;;;16.23;6.63;;;;;;;20.44;86.64;99380.90;124954;1102;104150;-79
2021/08/06 05:52:58;;;;;;;11.80;6.30;;;;;;;20.42;87.49;99380.03;124905;1102;104213;-80
2021/08/06 05:55:36;;;;;;;16.63;6.87;;;;;;;20.41;87.19;99385.40;124924;1102;108177;-79
2021/08/06 05:58:10;;;;;;;13.43;7.17;;;;;;;20.41;87.20;99394.29;125185;1102;104245;-78
2021/08/06 06:00:43;;;;;;;12.97;6.60;;;;;;;20.40;87.07;99403.19;125242;1102;104166;-78
2021/08/06 06:03:22;;;;;;;14.10;6.77;;;;;;;20.39;86.45;99369.45;125115;1102;104255;-77
2021/08/06 06:06:04;;;;;;;15.80;7.47;;;;;;;20.43;87.33;99362.28;125026;1102;104297;-78
2021/08/06 06:08:41;;;;;;;15.73;6.87;;;;;;;20.45;86.96;99353.33;125146;1102;104286;-80
2021/08/06 06:11:14;;;;;;;18.45;7.60;;;;;;;20.50;87.59;99347.02;125130;1102;104210;-80
2021/08/06 06:13:51;;;;;;;17.47;8.20;;;;;;;20.51;87.06;99356.78;125089;1102;104283;-80
2021/08/06 06:16:29;;;;;;;22.47;9.33;;;;;;;20.43;86.55;99356.95;125107;1102;104249;-78
2021/08/06 06:19:03;;;;;;;13.30;7.30;;;;;;;20.36;87.45;99348.20;125068;1102;104131;-77
2021/08/06 06:21:37;;;;;;;15.93;8.00;;;;;;;20.28;87.20;99329.73;124974;1102;104198;-77
2021/08/06 06:24:10;;;;;;;17.40;9.37;;;;;;;20.23;86.93;99322.77;125024;1102;104197;-77
2021/08/06 06:26:44;;;;;;;18.25;10.03;;;;;;;20.15;87.58;99322.05;125166;1102;104275;-77
2021/08/06 06:29:17;;;;;;;20.97;10.73;;;;;;;20.11;87.46;99338.09;125100;1102;104204;-77
2021/08/06 06:31:54;;;;;;;19.27;10.13;;;;;;;20.13;87.56;99345.18;125165;1102;104252;-77
2021/08/06 06:34:30;;;;;;;19.03;10.37;;;;;;;20.08;87.03;99326.64;125048;1102;104188;-79
2021/08/06 06:37:05;;;;;;;18.97;10.00;;;;;;;20.02;87.18;99322.31;125170;1102;104168;-79
2021/08/06 06:39:39;;;;;;;23.20;11.30;;;;;;;20.02;87.43;99334.77;125170;1102;104278;-79
2021/08/06 06:42:16;;;;;;;20.40;10.20;;;;;;;20.03;86.98;99334.73;125225;1102;104236;-79
2021/08/06 06:44:56;;;;;;;22.30;10.70;;;;;;;20.05;87.27;99321.38;124906;1102;104271;-79
2021/08/06 06:47:42;;;;;;;15.00;7.27;;;;;;;19.97;87.14;99316.22;124936;1102;104421;-80
2021/08/06 06:50:21;;;;;;;18.33;8.60;;;;;;;19.94;88.06;99297.66;124985;1102;104303;-79
2021/08/06 06:52:54;;;;;;;19.77;10.73;;;;;;;19.96;88.03;99281.65;124963;1102;104293;-79
2021/08/06 06:55:31;;;;;;;18.83;9.33;;;;;;;19.93;87.43;99290.59;124929;1102;104197;-76
2021/08/06 06:58:08;;;;;;;19.13;8.83;;;;;;;19.95;87.42;99288.77;124938;1102;104303;-78
2021/08/06 07:00:40;;;;;;;16.83;8.17;;;;;;;19.97;87.80;99294.92;124947;1102;104325;-78
2021/08/06 07:03:17;;;;;;;17.40;8.07;;;;;;;20.05;88.47;99303.61;125116;1102;104224;-79
2021/08/06 07:05:49;;;;;;;17.47;8.23;;;;;;;20.13;88.48;99307.91;125087;1102;104139;-79
2021/08/06 07:08:25;;;;;;;13.33;6.63;;;;;;;20.19;88.42;99295.31;125227;1102;104169;-78
2021/08/06 07:11:00;;;;;;;15.70;7.57;;;;;;;20.29;87.65;99294.20;125197;1100;104252;-77
2021/08/06 07:13:31;;;;;;;16.30;7.20;;;;;;;20.38;88.31;99305.55;125151;1102;104169;-76
2021/08/06 07:16:24;;;;;;;14.80;7.00;;;;;;;20.43;87.46;99346.30;125120;1102;104169;-77
2021/08/06 07:18:57;;;;;;;13.03;6.67;;;;;;;20.44;87.45;99356.92;125201;1099;104194;-78
2021/08/06 07:21:34;;;;;;;17.73;6.70;;;;;;;20.37;88.35;99360.63;125159;1100;104194;-78
2021/08/06 07:24:06;;;;;;;16.50;6.00;;;;;;;20.31;88.62;99368.75;125225;1102;104149;-77
2021/08/06 07:26:38;;;;;;;16.00;6.50;;;;;;;20.31;88.67;99362.55;125130;1099;104143;-77
2021/08/06 07:29:38;;;;;;;13.33;6.50;;;;;;;20.29;88.26;99383.91;125184;1099;104162;-77
2021/08/06 07:35:33;;;;;;;15.15;6.58;;;;;;;20.18;88.66;99388.56;125206;1099;104149;-78
2021/08/06 07:38:21;;;;;;;14.53;6.70;;;;;;;20.07;88.73;99392.34;125196;1102;104303;-77
2021/08/06 07:40:55;;;;;;;17.77;7.13;;;;;;;20.01;87.76;99448.38;124900;1102;104338;-76
2021/08/06 07:43:30;;;;;;;16.70;6.47;;;;;;;19.97;88.04;99634.84;125087;1102;104144;-76
2021/08/06 07:46:08;;;;;;;20.23;6.43;;;;;;;19.88;90.04;99674.03;125065;1102;104220;-76
2021/08/06 07:48:40;;;;;;;14.43;3.70;;;;;;;19.61;88.86;99567.97;124911;1102;104203;-75
2021/08/06 07:51:13;;;;;;;18.80;4.63;;;;;;;19.31;88.18;99541.83;124956;1102;104184;-78
2021/08/06 07:53:45;;;;;;;10.75;3.62;;;;;;;19.16;87.84;99488.88;124873;1101;104246;-77
2021/08/06 07:56:26;;;;;;;11.30;4.03;;;;;;;19.09;87.95;99437.58;124946;1102;104192;-80
2021/08/06 07:59:08;;;;;;;8.93;3.70;;;;;;;19.01;88.19;99469.59;125205;1102;104337;-79
2021/08/06 08:01:41;;;;;;;15.97;5.73;;;;;;;18.89;88.16;99483.08;125175;1102;104251;-77
2021/08/06 08:04:15;;;;;;;15.33;5.37;;;;;;;18.82;88.12;99453.02;124973;1102;104184;-78
2021/08/06 08:06:49;;;;;;;24.47;5.17;;;;;;;18.78;88.55;99416.75;124898;1102;105486;-79
2021/08/06 08:09:26;;;;;;;12.03;4.63;;;;;;;18.74;88.06;99400.88;125080;1102;104213;-79
2021/08/06 08:12:05;;;;;;;12.63;5.20;;;;;;;18.65;88.32;99322.17;124952;1102;104184;-78
2021/08/06 08:14:37;;;;;;;12.17;5.57;;;;;;;18.66;89.09;99250.42;125105;1102;104262;-79
2021/08/06 08:17:12;;;;;;;11.03;3.70;;;;;;;18.55;88.70;99260.36;125105;1102;104153;-79
2021/08/06 08:19:49;;;;;;;8.70;3.57;;;;;;;18.52;88.80;99284.31;125140;1102;104161;-79
2021/08/06 08:22:24;;;;;;;9.90;3.33;;;;;;;18.52;88.95;99324.16;125217;1100;104200;-77
2021/08/06 08:24:57;;;;;;;10.73;3.80;;;;;;;18.52;88.80;99333.92;125190;1102;104175;-78
2021/08/06 08:27:29;;;;;;;8.23;3.67;;;;;;;18.56;88.87;99341.81;125235;1099;104159;-76
2021/08/06 08:30:07;;;;;;;11.23;4.50;;;;;;;18.56;89.08;99376.34;125207;1099;104143;-77
2021/08/06 08:32:41;;;;;;;12.77;4.63;;;;;;;18.58;88.93;99374.54;125164;1099;104194;-77
2021/08/06 08:35:14;;;;;;;10.43;4.60;;;;;;;18.63;89.34;99393.06;125107;1099;104201;-76
2021/08/06 08:37:48;;;;;;;12.00;5.30;;;;;;;18.72;89.22;99430.13;125176;1099;104307;-77
2021/08/06 08:40:24;;;;;;;7.30;4.50;;;;;;;18.77;89.08;99422.09;125197;1099;104217;-79
2021/08/06 08:42:59;;;;;;;9.50;4.50;;;;;;;18.66;88.63;99388.58;125239;1099;104264;-77
2021/08/06 08:45:34;;;;;;;11.83;4.90;;;;;;;18.52;89.86;99272.82;125219;1099;104294;-78
2021/08/06 08:48:10;;;;;;;11.70;5.20;;;;;;;18.33;90.75;99143.86;125155;1099;104290;-79
2021/08/06 08:50:43;;;;;;;11.47;5.20;;;;;;;18.22;91.62;99057.36;125289;1099;104165;-78
2021/08/06 08:53:16;;;;;;;10.53;4.67;;;;;;;18.11;90.87;99060.20;125242;1102;104178;-77
2021/08/06 08:55:52;;;;;;;9.83;4.47;;;;;;;18.09;90.52;99085.88;125288;1099;104165;-77
2021/08/06 08:58:27;;;;;;;9.30;4.30;;;;;;;18.12;90.25;99104.41;125104;1102;104192;-78
2021/08/06 09:01:08;;;;;;;7.77;3.60;;;;;;;18.14;91.10;99129.17;125162;1102;104219;-78
2021/08/06 09:03:46;;;;;;;13.27;5.47;;;;;;;18.12;90.33;99152.19;125120;1102;104166;-77
2021/08/06 09:06:45;;;;;;;11.37;4.90;;;;;;;18.16;90.21;99145.94;125161;1099;104159;-78
2021/08/06 09:09:36;;;;;;;12.87;4.97;;;;;;;18.21;89.99;99167.97;125117;1102;119321;-78
2021/08/06 09:12:31;;;;;;;9.20;4.30;;;;;;;18.25;89.82;99179.44;125152;1102;104350;-78
2021/08/06 09:15:14;;;;;;;7.77;4.43;;;;;;;18.26;89.93;99191.78;124956;1102;104597;-77
2021/08/06 09:17:51;;;;;;;;;;;;;;;18.19;89.90;99206.95;125171;1102;104417;-78
2021/08/06 09:20:25;;;;;;;6.77;3.63;;;;;;;18.11;89.85;99225.66;125213;1102;104287;-77
2021/08/06 09:22:59;;;;;;;5.43;2.90;;;;;;;18.11;89.79;99264.60;124992;1102;104443;-77
2021/08/06 09:25:39;;;;;;;8.80;3.53;;;;;;;18.10;89.61;99298.21;124926;1102;104203;-78
2021/08/06 09:28:16;;;;;;;10.03;4.00;;;;;;;18.10;89.71;99297.34;124981;1100;105514;-80
2021/08/06 09:30:56;;;;;;;10.90;4.67;;;;;;;18.11;90.13;99323.00;125127;1099;104309;-78
2021/08/06 09:33:37;;;;;;;9.87;4.87;;;;;;;18.17;90.08;99348.56;125211;1102;104185;-80
2021/08/06 09:36:28;;;;;;;13.87;5.60;;;;;;;18.21;90.53;99372.40;125136;1099;104181;-79
2021/08/06 09:39:25;;;;;;;12.70;6.80;;;;;;;18.24;90.23;99393.60;125077;1098;104249;-80
2021/08/06 09:42:18;;;;;;;15.20;7.40;;;;;;;18.25;89.83;99384.75;125319;1099;104219;-80
2021/08/06 09:45:07;;;;;;;15.73;8.30;;;;;;;18.27;89.96;99384.73;125122;1099;104198;-78
2021/08/06 09:47:58;;;;;;;18.27;9.93;;;;;;;18.36;90.19;99418.26;125173;1099;102942;-82
2021/08/06 09:50:43;;;;;;;23.20;10.43;;;;;;;18.40;90.05;99444.76;125356;1099;118183;-81
2021/08/06 09:53:19;;;;;;;18.70;10.87;;;;;;;18.43;90.36;99419.91;126065;1098;102118;-80
2021/08/06 09:55:55;;;;;;;20.50;11.27;;;;;;;18.49;90.27;99420.70;126079;1099;104246;-77
2021/08/06 09:58:33;;;;;;;17.20;9.47;;;;;;;18.57;90.23;99425.03;126019;1099;104223;-76
2021/08/06 10:01:21;;;;;;;16.87;9.33;;;;;;;18.64;90.33;99432.03;125967;1098;104265;-77
2021/08/06 10:04:23;;;;;;;17.90;8.85;;;;;;;18.69;90.20;99462.06;125766;1099;104226;-77
2021/08/06 10:10:35;;;;;;;;;;;;;;;;;;;;;
2021/08/06 10:13:33;;;;;;;16.63;8.27;;;;;;;18.85;90.01;99481.34;126001;1099;104242;-78
2021/08/06 10:16:12;;;;;;;19.27;9.53;;;;;;;18.92;90.33;99484.81;125158;1099;104665;-78
2021/08/06 10:19:02;;;;;;;17.33;8.97;;;;;;;19.02;90.32;99495.27;125248;1099;104258;-78
2021/08/06 10:21:58;;;;;;;15.77;8.30;;;;;;;19.09;90.87;99492.52;126146;1099;104379;-78
2021/08/06 10:25:06;;;;;;;14.50;6.50;;;;;;;19.07;89.85;99460.63;125266;1099;104229;-77
2021/08/06 10:27:49;;;;;;;15.57;7.60;;;;;;;19.00;90.04;99443.04;125308;1099;104248;-78
2021/08/06 10:30:26;;;;;;;16.30;7.80;;;;;;;18.98;90.12;99442.16;125200;1099;104229;-76
2021/08/06 10:33:19;;;;;;;15.63;7.67;;;;;;;19.03;90.64;99419.94;126050;1099;102781;-77
2021/08/06 10:36:13;;;;;;;17.82;8.33;;;;;;;19.03;90.03;99400.45;126078;1099;104169;-78
2021/08/06 10:38:59;;;;;;;16.20;7.40;;;;;;;18.88;89.69;99367.02;125356;1099;104194;-79
2021/08/06 10:41:52;;;;;;;14.00;6.90;;;;;;;18.80;89.78;99332.56;125296;1099;109834;-79
2021/08/06 10:44:57;;;;;;;13.40;6.60;;;;;;;18.69;89.82;99327.42;126020;1099;104188;-78
2021/08/06 10:47:42;;;;;;;;;;;;;;;18.66;90.18;99338.09;125233;1099;104194;-78
2021/08/06 10:50:20;;;;;;;18.03;8.33;;;;;;;18.77;91.04;99337.06;125341;1099;104195;-77
2021/08/06 10:53:20;;;;;;;20.63;9.03;;;;;;;18.86;90.86;99318.34;125966;1098;104221;-79
2021/08/06 10:56:32;;;;;;;15.77;8.33;;;;;;;18.81;90.40;99326.35;125293;1099;104191;-78
2021/08/06 10:59:10;;;;;;;21.93;10.20;;;;;;;18.90;91.08;99327.12;125669;1099;104249;-78
2021/08/06 11:01:49;;;;;;;18.60;10.20;;;;;;;19.01;91.06;99323.39;126201;1099;104252;-78
2021/08/06 11:04:47;;;;;;;21.10;10.10;;;;;;;19.07;90.44;99337.47;125284;1099;104786;-76
2021/08/06 11:07:33;;;;;;;21.57;10.50;;;;;;;19.15;90.58;99354.16;125363;1099;104207;-77
2021/08/06 11:10:08;;;;;;;23.37;11.17;;;;;;;19.22;90.75;99382.41;126153;1099;104165;-78
2021/08/06 11:12:50;;;;;;;24.07;11.00;;;;;;;19.33;91.27;99407.02;126226;1099;104175;-77
2021/08/06 11:15:26;;;;;;;19.57;10.07;;;;;;;19.41;90.95;99425.50;126224;1099;104153;-78
2021/08/06 11:18:10;;;;;;;22.93;11.53;;;;;;;19.49;90.75;99425.37;125271;1099;104144;-78
2021/08/06 11:20:56;;;;;;;22.15;10.40;;;;;;;19.49;90.20;99423.58;126128;1099;104701;-79
2021/08/06 11:23:33;;;;;;;21.53;11.40;;;;;;;19.51;90.69;99426.21;126167;1099;104156;-77
2021/08/06 11:26:10;;;;;;;23.80;12.30;;;;;;;19.62;90.92;99413.61;126243;1099;104149;-78
2021/08/06 11:28:43;;;;;;;22.13;11.60;;;;;;;19.70;90.49;99417.00;126017;1099;104214;-76
2021/08/06 11:31:20;;;;;;;22.33;13.33;;;;;;;19.80;91.52;99398.22;125902;1099;104657;-77
2021/08/06 11:34:06;;;;;;;27.13;13.50;;;;;;;19.85;90.50;99383.93;126136;1099;104838;-78
2021/08/06 11:36:43;;;;;;;25.03;14.03;;;;;;;19.93;90.91;99391.77;125352;1099;104146;-77
2021/08/06 11:39:20;;;;;;;25.40;13.23;;;;;;;19.96;91.17;99405.02;126148;1099;104643;-80
2021/08/06 11:41:55;;;;;;;27.07;14.27;;;;;;;19.95;90.10;99405.91;125285;1102;104174;-78
2021/08/06 11:44:29;;;;;;;26.43;15.40;;;;;;;19.94;91.37;99404.14;126243;1099;104268;-77
2021/08/06 11:47:04;;;;;;;28.23;16.00;;;;;;;19.96;91.05;99410.34;125414;1099;104233;-79
2021/08/06 11:49:51;;;;;;;27.00;15.90;;;;;;;19.96;90.56;99423.65;125262;1099;104249;-77
2021/08/06 11:52:38;;;;;;;28.50;16.03;;;;;;;19.98;90.71;99424.48;125315;1099;104393;-77
2021/08/06 11:55:20;;;;;;;28.30;16.43;;;;;;;19.97;91.01;99430.70;125307;1099;104156;-78
2021/08/06 11:57:59;;;;;;;27.60;14.47;;;;;;;19.93;90.65;99431.70;125403;1099;104341;-78
2021/08/06 12:00:43;;;;;;;23.97;13.70;;;;;;;19.86;90.90;99433.58;125406;1099;104236;-78
2021/08/06 12:03:23;;;;;;;27.35;15.40;;;;;;;19.82;91.43;99413.27;125366;1099;109853;-78